sensor_id;sensor_type;location;lat;lon;timestamp;P1;durP1;ratioP1;P2;durP2;ratioP2
6135;SDS011;24008;42.664;23.372;2022-12-18T00:00:03;10.57;;;7.30;;
6135;SDS011;24008;42.664;23.372;2022-12-18T00:02:32;10.37;;;7.80;;
6135;SDS011;24008;42.664;23.372;2022-12-18T00:04:59;10.23;;;7.77;;
6135;SDS011;24008;42.664;23.372;2022-12-18T00:07:25;10.87;;;8.20;;
6135;SDS011;24008;42.664;23.372;2022-12-18T00:09:52;10.93;;;8.03;;
6135;SDS011;24008;42.664;23.372;2022-12-18T00:12:20;10.77;;;8.00;;
6135;SDS011;24008;42.664;23.372;2022-12-18T00:14:47;11.93;;;8.13;;
6135;SDS011;24008;42.664;23.372;2022-12-18T00:17:14;12.03;;;8.33;;
6135;SDS011;24008;42.664;23.372;2022-12-18T00:19:40;11.50;;;8.17;;
6135;SDS011;24008;42.664;23.372;2022-12-18T00:22:07;12.83;;;8.50;;
6135;SDS011;24008;42.664;23.372;2022-12-18T00:24:34;11.37;;;8.43;;
6135;SDS011;24008;42.664;23.372;2022-12-18T00:27:01;11.13;;;8.20;;
6135;SDS011;24008;42.664;23.372;2022-12-18T00:29:32;12.10;;;8.23;;
6135;SDS011;24008;42.664;23.372;2022-12-18T00:31:59;11.97;;;8.63;;
6135;SDS011;24008;42.664;23.372;2022-12-18T00:34:26;13.77;;;8.70;;
6135;SDS011;24008;42.664;23.372;2022-12-18T00:36:52;13.47;;;8.80;;
6135;SDS011;24008;42.664;23.372;2022-12-18T00:39:19;15.73;;;9.90;;
6135;SDS011;24008;42.664;23.372;2022-12-18T00:41:46;11.33;;;8.57;;
6135;SDS011;24008;42.664;23.372;2022-12-18T00:44:31;11.57;;;8.40;;
6135;SDS011;24008;42.664;23.372;2022-12-18T00:46:58;11.17;;;8.50;;
6135;SDS011;24008;42.664;23.372;2022-12-18T00:49:25;10.43;;;7.73;;
6135;SDS011;24008;42.664;23.372;2022-12-18T00:51:55;13.43;;;8.63;;
6135;SDS011;24008;42.664;23.372;2022-12-18T00:54:22;11.63;;;7.90;;
6135;SDS011;24008;42.664;23.372;2022-12-18T00:56:49;13.17;;;8.40;;
6135;SDS011;24008;42.664;23.372;2022-12-18T00:59:37;13.43;;;8.07;;
6135;SDS011;24008;42.664;23.372;2022-12-18T01:02:04;11.87;;;8.00;;
6135;SDS011;24008;42.664;23.372;2022-12-18T01:04:31;10.00;;;7.50;;
6135;SDS011;24008;42.664;23.372;2022-12-18T01:07:16;10.67;;;7.40;;
6135;SDS011;24008;42.664;23.372;2022-12-18T01:09:43;10.07;;;7.67;;
6135;SDS011;24008;42.664;23.372;2022-12-18T01:12:10;11.13;;;7.83;;
6135;SDS011;24008;42.664;23.372;2022-12-18T01:14:38;11.47;;;8.23;;
6135;SDS011;24008;42.664;23.372;2022-12-18T01:17:05;13.10;;;9.47;;
6135;SDS011;24008;42.664;23.372;2022-12-18T01:19:32;13.70;;;9.03;;
6135;SDS011;24008;42.664;23.372;2022-12-18T01:21:59;10.40;;;7.73;;
6135;SDS011;24008;42.664;23.372;2022-12-18T01:24:26;11.67;;;7.70;;
6135;SDS011;24008;42.664;23.372;2022-12-18T01:26:52;13.30;;;8.57;;
6135;SDS011;24008;42.664;23.372;2022-12-18T01:29:19;12.53;;;8.50;;
6135;SDS011;24008;42.664;23.372;2022-12-18T01:31:47;17.87;;;9.07;;
6135;SDS011;24008;42.664;23.372;2022-12-18T01:34:14;15.50;;;9.37;;
6135;SDS011;24008;42.664;23.372;2022-12-18T01:36:41;13.57;;;9.70;;
6135;SDS011;24008;42.664;23.372;2022-12-18T01:39:09;13.70;;;9.07;;
6135;SDS011;24008;42.664;23.372;2022-12-18T01:41:37;13.30;;;8.80;;
6135;SDS011;24008;42.664;23.372;2022-12-18T01:47:21;15.80;;;10.23;;
6135;SDS011;24008;42.664;23.372;2022-12-18T01:49:51;13.90;;;9.93;;
6135;SDS011;24008;42.664;23.372;2022-12-18T01:52:18;13.97;;;9.87;;
6135;SDS011;24008;42.664;23.372;2022-12-18T01:54:46;14.93;;;10.13;;
6135;SDS011;24008;42.664;23.372;2022-12-18T01:57:15;14.60;;;10.23;;
6135;SDS011;24008;42.664;23.372;2022-12-18T01:59:42;16.23;;;9.57;;
6135;SDS011;24008;42.664;23.372;2022-12-18T02:02:14;14.07;;;9.83;;
6135;SDS011;24008;42.664;23.372;2022-12-18T02:04:43;14.93;;;9.30;;
6135;SDS011;24008;42.664;23.372;2022-12-18T02:07:11;13.90;;;9.60;;
6135;SDS011;24008;42.664;23.372;2022-12-18T02:09:44;16.23;;;9.50;;
6135;SDS011;24008;42.664;23.372;2022-12-18T02:12:16;14.60;;;9.57;;
6135;SDS011;24008;42.664;23.372;2022-12-18T02:14:47;13.80;;;9.30;;
6135;SDS011;24008;42.664;23.372;2022-12-18T02:17:22;13.57;;;9.47;;
6135;SDS011;24008;42.664;23.372;2022-12-18T02:19:58;13.33;;;9.27;;
6135;SDS011;24008;42.664;23.372;2022-12-18T02:22:35;14.37;;;9.47;;
6135;SDS011;24008;42.664;23.372;2022-12-18T02:25:11;14.13;;;8.87;;
6135;SDS011;24008;42.664;23.372;2022-12-18T02:27:49;13.07;;;9.00;;
6135;SDS011;24008;42.664;23.372;2022-12-18T02:30:18;13.23;;;8.57;;
6135;SDS011;24008;42.664;23.372;2022-12-18T02:32:47;13.13;;;9.47;;
6135;SDS011;24008;42.664;23.372;2022-12-18T02:35:18;12.83;;;9.30;;
6135;SDS011;24008;42.664;23.372;2022-12-18T02:37:49;14.17;;;9.30;;
6135;SDS011;24008;42.664;23.372;2022-12-18T02:40:17;14.20;;;8.83;;
6135;SDS011;24008;42.664;23.372;2022-12-18T02:42:45;13.17;;;9.13;;
6135;SDS011;24008;42.664;23.372;2022-12-18T02:45:13;12.30;;;8.63;;
6135;SDS011;24008;42.664;23.372;2022-12-18T02:47:41;13.77;;;8.80;;
6135;SDS011;24008;42.664;23.372;2022-12-18T02:50:13;12.33;;;8.73;;
6135;SDS011;24008;42.664;23.372;2022-12-18T02:52:47;12.17;;;8.90;;
6135;SDS011;24008;42.664;23.372;2022-12-18T02:55:23;13.60;;;9.37;;
6135;SDS011;24008;42.664;23.372;2022-12-18T02:58:02;15.10;;;9.03;;
6135;SDS011;24008;42.664;23.372;2022-12-18T03:00:35;13.63;;;8.97;;
6135;SDS011;24008;42.664;23.372;2022-12-18T03:03:09;13.00;;;9.53;;
6135;SDS011;24008;42.664;23.372;2022-12-18T03:05:41;13.67;;;9.57;;
6135;SDS011;24008;42.664;23.372;2022-12-18T03:08:18;13.13;;;9.27;;
6135;SDS011;24008;42.664;23.372;2022-12-18T03:10:49;14.17;;;9.60;;
6135;SDS011;24008;42.664;23.372;2022-12-18T03:13:20;13.77;;;9.67;;
6135;SDS011;24008;42.664;23.372;2022-12-18T03:15:54;14.57;;;10.33;;
6135;SDS011;24008;42.664;23.372;2022-12-18T03:18:23;15.90;;;10.67;;
6135;SDS011;24008;42.664;23.372;2022-12-18T03:20:56;15.53;;;9.43;;
6135;SDS011;24008;42.664;23.372;2022-12-18T03:23:29;15.57;;;9.37;;
6135;SDS011;24008;42.664;23.372;2022-12-18T03:26:01;13.97;;;8.93;;
6135;SDS011;24008;42.664;23.372;2022-12-18T03:28:31;13.17;;;9.20;;
6135;SDS011;24008;42.664;23.372;2022-12-18T03:31:05;12.67;;;8.80;;
6135;SDS011;24008;42.664;23.372;2022-12-18T03:33:37;12.57;;;8.90;;
6135;SDS011;24008;42.664;23.372;2022-12-18T03:36:07;13.00;;;9.13;;
6135;SDS011;24008;42.664;23.372;2022-12-18T03:38:34;12.87;;;8.57;;
6135;SDS011;24008;42.664;23.372;2022-12-18T03:41:04;14.63;;;9.10;;
6135;SDS011;24008;42.664;23.372;2022-12-18T03:43:40;14.13;;;9.07;;
6135;SDS011;24008;42.664;23.372;2022-12-18T03:46:17;14.33;;;8.70;;
6135;SDS011;24008;42.664;23.372;2022-12-18T03:48:52;12.80;;;9.00;;
6135;SDS011;24008;42.664;23.372;2022-12-18T03:51:26;14.07;;;9.33;;
6135;SDS011;24008;42.664;23.372;2022-12-18T03:53:59;14.83;;;9.87;;
6135;SDS011;24008;42.664;23.372;2022-12-18T03:56:29;13.23;;;9.40;;
6135;SDS011;24008;42.664;23.372;2022-12-18T03:58:58;13.90;;;9.47;;
6135;SDS011;24008;42.664;23.372;2022-12-18T04:01:30;14.43;;;9.70;;
6135;SDS011;24008;42.664;23.372;2022-12-18T04:04:00;16.53;;;10.23;;
6135;SDS011;24008;42.664;23.372;2022-12-18T04:06:28;13.53;;;9.50;;
6135;SDS011;24008;42.664;23.372;2022-12-18T04:08:57;17.13;;;10.47;;
6135;SDS011;24008;42.664;23.372;2022-12-18T04:11:24;15.37;;;9.47;;
6135;SDS011;24008;42.664;23.372;2022-12-18T04:13:52;16.30;;;9.80;;
6135;SDS011;24008;42.664;23.372;2022-12-18T04:16:21;16.27;;;10.57;;
6135;SDS011;24008;42.664;23.372;2022-12-18T04:18:49;14.70;;;9.43;;
6135;SDS011;24008;42.664;23.372;2022-12-18T04:21:16;16.07;;;9.77;;
6135;SDS011;24008;42.664;23.372;2022-12-18T04:23:43;14.33;;;9.63;;
6135;SDS011;24008;42.664;23.372;2022-12-18T04:26:10;15.23;;;9.67;;
6135;SDS011;24008;42.664;23.372;2022-12-18T04:28:37;16.37;;;10.50;;
6135;SDS011;24008;42.664;23.372;2022-12-18T04:31:04;16.63;;;10.07;;
6135;SDS011;24008;42.664;23.372;2022-12-18T04:33:30;16.20;;;10.50;;
6135;SDS011;24008;42.664;23.372;2022-12-18T04:35:59;16.37;;;10.57;;
6135;SDS011;24008;42.664;23.372;2022-12-18T04:38:25;17.57;;;10.97;;
6135;SDS011;24008;42.664;23.372;2022-12-18T04:40:52;16.83;;;10.77;;
6135;SDS011;24008;42.664;23.372;2022-12-18T04:43:19;17.07;;;10.37;;
6135;SDS011;24008;42.664;23.372;2022-12-18T04:45:46;16.67;;;10.70;;
6135;SDS011;24008;42.664;23.372;2022-12-18T04:48:13;16.27;;;10.73;;
6135;SDS011;24008;42.664;23.372;2022-12-18T04:50:39;18.53;;;11.43;;
6135;SDS011;24008;42.664;23.372;2022-12-18T04:53:08;17.13;;;10.93;;
6135;SDS011;24008;42.664;23.372;2022-12-18T04:55:34;16.90;;;10.90;;
6135;SDS011;24008;42.664;23.372;2022-12-18T04:58:01;18.23;;;11.40;;
6135;SDS011;24008;42.664;23.372;2022-12-18T05:00:28;18.03;;;11.33;;
6135;SDS011;24008;42.664;23.372;2022-12-18T05:02:55;20.10;;;11.17;;
6135;SDS011;24008;42.664;23.372;2022-12-18T05:05:21;19.80;;;11.30;;
6135;SDS011;24008;42.664;23.372;2022-12-18T05:07:48;18.23;;;11.37;;
6135;SDS011;24008;42.664;23.372;2022-12-18T05:10:16;22.53;;;12.70;;
6135;SDS011;24008;42.664;23.372;2022-12-18T05:12:43;20.80;;;12.57;;
6135;SDS011;24008;42.664;23.372;2022-12-18T05:15:24;22.83;;;13.30;;
6135;SDS011;24008;42.664;23.372;2022-12-18T05:17:53;21.97;;;12.70;;
6135;SDS011;24008;42.664;23.372;2022-12-18T05:20:20;20.53;;;12.63;;
6135;SDS011;24008;42.664;23.372;2022-12-18T05:22:47;22.53;;;13.23;;
6135;SDS011;24008;42.664;23.372;2022-12-18T05:25:14;23.77;;;13.40;;
6135;SDS011;24008;42.664;23.372;2022-12-18T05:27:42;22.70;;;13.23;;
6135;SDS011;24008;42.664;23.372;2022-12-18T05:30:10;20.33;;;11.80;;
6135;SDS011;24008;42.664;23.372;2022-12-18T05:32:38;22.67;;;12.83;;
6135;SDS011;24008;42.664;23.372;2022-12-18T05:35:06;19.90;;;12.03;;
6135;SDS011;24008;42.664;23.372;2022-12-18T05:37:34;21.17;;;12.87;;
6135;SDS011;24008;42.664;23.372;2022-12-18T05:40:01;20.97;;;12.07;;
6135;SDS011;24008;42.664;23.372;2022-12-18T05:42:28;22.23;;;13.07;;
6135;SDS011;24008;42.664;23.372;2022-12-18T05:44:56;21.73;;;12.50;;
6135;SDS011;24008;42.664;23.372;2022-12-18T05:47:23;20.50;;;12.07;;
6135;SDS011;24008;42.664;23.372;2022-12-18T05:49:50;19.87;;;11.83;;
6135;SDS011;24008;42.664;23.372;2022-12-18T05:52:17;22.43;;;12.57;;
6135;SDS011;24008;42.664;23.372;2022-12-18T05:54:44;23.30;;;12.73;;
6135;SDS011;24008;42.664;23.372;2022-12-18T05:57:10;20.73;;;13.10;;
6135;SDS011;24008;42.664;23.372;2022-12-18T05:59:37;21.37;;;13.10;;
6135;SDS011;24008;42.664;23.372;2022-12-18T06:02:05;21.97;;;13.37;;
6135;SDS011;24008;42.664;23.372;2022-12-18T06:04:32;23.97;;;13.27;;
6135;SDS011;24008;42.664;23.372;2022-12-18T06:06:59;23.67;;;13.33;;
6135;SDS011;24008;42.664;23.372;2022-12-18T06:09:26;25.03;;;14.03;;
6135;SDS011;24008;42.664;23.372;2022-12-18T06:11:53;24.10;;;14.27;;
6135;SDS011;24008;42.664;23.372;2022-12-18T06:14:19;24.23;;;13.73;;
6135;SDS011;24008;42.664;23.372;2022-12-18T06:16:46;26.83;;;14.97;;
6135;SDS011;24008;42.664;23.372;2022-12-18T06:19:15;24.37;;;13.47;;
6135;SDS011;24008;42.664;23.372;2022-12-18T06:21:43;23.67;;;13.67;;
6135;SDS011;24008;42.664;23.372;2022-12-18T06:24:10;24.87;;;14.27;;
6135;SDS011;24008;42.664;23.372;2022-12-18T06:26:37;24.13;;;14.20;;
6135;SDS011;24008;42.664;23.372;2022-12-18T06:29:03;23.40;;;14.10;;
6135;SDS011;24008;42.664;23.372;2022-12-18T06:31:30;26.07;;;14.70;;
6135;SDS011;24008;42.664;23.372;2022-12-18T06:33:57;24.63;;;14.17;;
6135;SDS011;24008;42.664;23.372;2022-12-18T06:36:25;23.60;;;14.17;;
6135;SDS011;24008;42.664;23.372;2022-12-18T06:38:52;21.53;;;13.33;;
6135;SDS011;24008;42.664;23.372;2022-12-18T06:41:19;24.63;;;13.60;;
6135;SDS011;24008;42.664;23.372;2022-12-18T06:43:47;24.33;;;13.90;;
6135;SDS011;24008;42.664;23.372;2022-12-18T06:46:14;25.40;;;14.70;;
6135;SDS011;24008;42.664;23.372;2022-12-18T06:48:42;24.27;;;14.47;;
6135;SDS011;24008;42.664;23.372;2022-12-18T06:51:09;26.80;;;15.00;;
6135;SDS011;24008;42.664;23.372;2022-12-18T06:53:37;25.73;;;14.20;;
6135;SDS011;24008;42.664;23.372;2022-12-18T06:56:04;27.00;;;14.80;;
6135;SDS011;24008;42.664;23.372;2022-12-18T06:58:33;26.53;;;15.00;;
6135;SDS011;24008;42.664;23.372;2022-12-18T07:01:00;23.90;;;14.13;;
6135;SDS011;24008;42.664;23.372;2022-12-18T07:03:27;23.80;;;14.77;;
6135;SDS011;24008;42.664;23.372;2022-12-18T07:05:54;22.07;;;13.30;;
6135;SDS011;24008;42.664;23.372;2022-12-18T07:08:21;24.10;;;13.90;;
6135;SDS011;24008;42.664;23.372;2022-12-18T07:10:49;23.63;;;14.13;;
6135;SDS011;24008;42.664;23.372;2022-12-18T07:13:16;26.43;;;14.73;;
6135;SDS011;24008;42.664;23.372;2022-12-18T07:15:43;22.60;;;13.50;;
6135;SDS011;24008;42.664;23.372;2022-12-18T07:18:10;23.07;;;13.87;;
6135;SDS011;24008;42.664;23.372;2022-12-18T07:20:37;23.60;;;14.13;;
6135;SDS011;24008;42.664;23.372;2022-12-18T07:23:04;26.13;;;15.13;;
6135;SDS011;24008;42.664;23.372;2022-12-18T07:25:33;27.27;;;15.50;;
6135;SDS011;24008;42.664;23.372;2022-12-18T07:28:01;25.57;;;15.43;;
6135;SDS011;24008;42.664;23.372;2022-12-18T07:30:28;24.67;;;15.00;;
6135;SDS011;24008;42.664;23.372;2022-12-18T07:32:55;26.20;;;15.33;;
6135;SDS011;24008;42.664;23.372;2022-12-18T07:35:22;24.17;;;14.17;;
6135;SDS011;24008;42.664;23.372;2022-12-18T07:37:48;25.67;;;15.37;;
6135;SDS011;24008;42.664;23.372;2022-12-18T07:40:15;25.70;;;15.73;;
6135;SDS011;24008;42.664;23.372;2022-12-18T07:42:42;28.17;;;16.17;;
6135;SDS011;24008;42.664;23.372;2022-12-18T07:45:10;25.07;;;15.37;;
6135;SDS011;24008;42.664;23.372;2022-12-18T07:47:37;29.37;;;16.37;;
6135;SDS011;24008;42.664;23.372;2022-12-18T07:50:06;30.33;;;16.43;;
6135;SDS011;24008;42.664;23.372;2022-12-18T07:52:33;28.33;;;16.70;;
6135;SDS011;24008;42.664;23.372;2022-12-18T07:55:00;31.23;;;17.67;;
6135;SDS011;24008;42.664;23.372;2022-12-18T07:57:27;31.30;;;16.80;;
6135;SDS011;24008;42.664;23.372;2022-12-18T07:59:54;32.27;;;17.93;;
6135;SDS011;24008;42.664;23.372;2022-12-18T08:02:22;31.33;;;17.40;;
6135;SDS011;24008;42.664;23.372;2022-12-18T08:04:49;34.33;;;18.40;;
6135;SDS011;24008;42.664;23.372;2022-12-18T08:07:16;30.17;;;17.90;;
6135;SDS011;24008;42.664;23.372;2022-12-18T08:09:43;30.50;;;16.77;;
6135;SDS011;24008;42.664;23.372;2022-12-18T08:12:09;33.07;;;18.47;;
6135;SDS011;24008;42.664;23.372;2022-12-18T08:14:36;34.47;;;18.27;;
6135;SDS011;24008;42.664;23.372;2022-12-18T08:17:03;33.93;;;18.03;;
6135;SDS011;24008;42.664;23.372;2022-12-18T08:19:31;31.63;;;18.60;;
6135;SDS011;24008;42.664;23.372;2022-12-18T08:21:58;32.60;;;17.80;;
6135;SDS011;24008;42.664;23.372;2022-12-18T08:24:25;35.80;;;17.97;;
6135;SDS011;24008;42.664;23.372;2022-12-18T08:26:52;32.80;;;18.50;;
6135;SDS011;24008;42.664;23.372;2022-12-18T08:29:19;30.70;;;18.30;;
6135;SDS011;24008;42.664;23.372;2022-12-18T08:31:46;33.50;;;17.60;;
6135;SDS011;24008;42.664;23.372;2022-12-18T08:34:13;33.77;;;18.70;;
6135;SDS011;24008;42.664;23.372;2022-12-18T08:36:41;31.83;;;17.33;;
6135;SDS011;24008;42.664;23.372;2022-12-18T08:39:07;31.47;;;17.43;;
6135;SDS011;24008;42.664;23.372;2022-12-18T08:41:34;34.93;;;18.90;;
6135;SDS011;24008;42.664;23.372;2022-12-18T08:44:01;30.93;;;17.80;;
6135;SDS011;24008;42.664;23.372;2022-12-18T08:46:42;32.73;;;17.67;;
6135;SDS011;24008;42.664;23.372;2022-12-18T08:49:10;32.53;;;18.53;;
6135;SDS011;24008;42.664;23.372;2022-12-18T08:51:38;32.90;;;18.10;;
6135;SDS011;24008;42.664;23.372;2022-12-18T08:54:07;32.80;;;18.17;;
6135;SDS011;24008;42.664;23.372;2022-12-18T08:56:37;31.80;;;18.63;;
6135;SDS011;24008;42.664;23.372;2022-12-18T08:59:04;34.63;;;17.70;;
6135;SDS011;24008;42.664;23.372;2022-12-18T09:01:30;32.70;;;17.43;;
6135;SDS011;24008;42.664;23.372;2022-12-18T09:03:57;31.60;;;17.87;;
6135;SDS011;24008;42.664;23.372;2022-12-18T09:06:27;32.50;;;17.30;;
6135;SDS011;24008;42.664;23.372;2022-12-18T09:08:54;29.23;;;16.80;;
6135;SDS011;24008;42.664;23.372;2022-12-18T09:11:23;31.50;;;16.63;;
6135;SDS011;24008;42.664;23.372;2022-12-18T09:13:51;32.33;;;16.50;;
6135;SDS011;24008;42.664;23.372;2022-12-18T09:16:19;31.70;;;16.47;;
6135;SDS011;24008;42.664;23.372;2022-12-18T09:18:46;29.33;;;16.57;;
6135;SDS011;24008;42.664;23.372;2022-12-18T09:21:14;32.33;;;16.00;;
6135;SDS011;24008;42.664;23.372;2022-12-18T09:23:42;27.93;;;16.43;;
6135;SDS011;24008;42.664;23.372;2022-12-18T09:26:12;28.27;;;16.23;;
6135;SDS011;24008;42.664;23.372;2022-12-18T09:28:41;26.13;;;15.37;;
6135;SDS011;24008;42.664;23.372;2022-12-18T09:31:09;27.33;;;15.43;;
6135;SDS011;24008;42.664;23.372;2022-12-18T09:33:40;27.90;;;15.57;;
6135;SDS011;24008;42.664;23.372;2022-12-18T09:36:12;25.87;;;15.53;;
6135;SDS011;24008;42.664;23.372;2022-12-18T09:38:40;30.63;;;16.50;;
6135;SDS011;24008;42.664;23.372;2022-12-18T09:41:14;30.50;;;15.97;;
6135;SDS011;24008;42.664;23.372;2022-12-18T09:43:48;28.87;;;16.80;;
6135;SDS011;24008;42.664;23.372;2022-12-18T09:46:19;29.20;;;15.30;;
6135;SDS011;24008;42.664;23.372;2022-12-18T09:48:52;26.70;;;15.43;;
6135;SDS011;24008;42.664;23.372;2022-12-18T09:51:23;28.63;;;16.77;;
6135;SDS011;24008;42.664;23.372;2022-12-18T09:53:55;26.03;;;15.10;;
6135;SDS011;24008;42.664;23.372;2022-12-18T09:56:25;27.13;;;14.80;;
6135;SDS011;24008;42.664;23.372;2022-12-18T09:58:58;26.87;;;14.93;;
6135;SDS011;24008;42.664;23.372;2022-12-18T10:01:27;31.53;;;15.73;;
6135;SDS011;24008;42.664;23.372;2022-12-18T10:03:57;26.40;;;15.30;;
6135;SDS011;24008;42.664;23.372;2022-12-18T10:06:26;27.40;;;16.03;;
6135;SDS011;24008;42.664;23.372;2022-12-18T10:09:02;23.23;;;14.20;;
6135;SDS011;24008;42.664;23.372;2022-12-18T10:11:40;26.83;;;15.13;;
6135;SDS011;24008;42.664;23.372;2022-12-18T10:14:18;28.87;;;15.80;;
6135;SDS011;24008;42.664;23.372;2022-12-18T10:16:56;27.20;;;15.03;;
6135;SDS011;24008;42.664;23.372;2022-12-18T10:19:37;25.60;;;15.17;;
6135;SDS011;24008;42.664;23.372;2022-12-18T10:22:13;27.23;;;15.60;;
6135;SDS011;24008;42.664;23.372;2022-12-18T10:24:50;28.60;;;16.00;;
6135;SDS011;24008;42.664;23.372;2022-12-18T10:27:24;26.27;;;15.47;;
6135;SDS011;24008;42.664;23.372;2022-12-18T10:29:54;26.20;;;15.60;;
6135;SDS011;24008;42.664;23.372;2022-12-18T10:32:22;26.40;;;15.60;;
6135;SDS011;24008;42.664;23.372;2022-12-18T10:34:50;26.20;;;14.93;;
6135;SDS011;24008;42.664;23.372;2022-12-18T10:37:19;26.10;;;15.23;;
6135;SDS011;24008;42.664;23.372;2022-12-18T10:40:04;26.70;;;15.43;;
6135;SDS011;24008;42.664;23.372;2022-12-18T10:42:34;25.70;;;14.87;;
6135;SDS011;24008;42.664;23.372;2022-12-18T10:45:03;27.33;;;15.97;;
6135;SDS011;24008;42.664;23.372;2022-12-18T10:47:34;27.97;;;16.00;;
6135;SDS011;24008;42.664;23.372;2022-12-18T10:50:02;30.77;;;16.93;;
6135;SDS011;24008;42.664;23.372;2022-12-18T10:52:29;28.93;;;15.90;;
6135;SDS011;24008;42.664;23.372;2022-12-18T10:54:57;28.73;;;16.07;;
6135;SDS011;24008;42.664;23.372;2022-12-18T10:57:30;28.37;;;15.93;;
6135;SDS011;24008;42.664;23.372;2022-12-18T11:00:01;28.57;;;15.70;;
6135;SDS011;24008;42.664;23.372;2022-12-18T11:02:49;29.43;;;16.83;;
6135;SDS011;24008;42.664;23.372;2022-12-18T11:05:23;27.20;;;15.53;;
6135;SDS011;24008;42.664;23.372;2022-12-18T11:07:54;30.00;;;16.87;;
6135;SDS011;24008;42.664;23.372;2022-12-18T11:10:22;29.40;;;17.33;;
6135;SDS011;24008;42.664;23.372;2022-12-18T11:12:52;29.70;;;17.33;;
6135;SDS011;24008;42.664;23.372;2022-12-18T11:15:21;29.70;;;16.27;;
6135;SDS011;24008;42.664;23.372;2022-12-18T11:17:52;28.43;;;15.67;;
6135;SDS011;24008;42.664;23.372;2022-12-18T11:20:20;28.30;;;15.57;;
6135;SDS011;24008;42.664;23.372;2022-12-18T11:22:57;26.37;;;15.13;;
6135;SDS011;24008;42.664;23.372;2022-12-18T11:25:26;29.47;;;15.70;;
6135;SDS011;24008;42.664;23.372;2022-12-18T11:28:25;28.03;;;15.67;;
6135;SDS011;24008;42.664;23.372;2022-12-18T11:33:46;27.27;;;14.93;;
6135;SDS011;24008;42.664;23.372;2022-12-18T11:36:16;23.73;;;13.53;;
6135;SDS011;24008;42.664;23.372;2022-12-18T11:38:45;26.37;;;14.77;;
6135;SDS011;24008;42.664;23.372;2022-12-18T11:41:15;26.27;;;14.40;;
6135;SDS011;24008;42.664;23.372;2022-12-18T11:43:48;23.27;;;13.87;;
6135;SDS011;24008;42.664;23.372;2022-12-18T11:46:24;27.17;;;15.10;;
6135;SDS011;24008;42.664;23.372;2022-12-18T11:48:58;28.93;;;16.03;;
6135;SDS011;24008;42.664;23.372;2022-12-18T11:51:32;27.40;;;15.77;;
6135;SDS011;24008;42.664;23.372;2022-12-18T11:54:04;28.43;;;16.20;;
6135;SDS011;24008;42.664;23.372;2022-12-18T11:56:39;30.93;;;15.87;;
6135;SDS011;24008;42.664;23.372;2022-12-18T11:59:18;28.00;;;16.10;;
6135;SDS011;24008;42.664;23.372;2022-12-18T12:01:54;26.07;;;14.77;;
6135;SDS011;24008;42.664;23.372;2022-12-18T12:07:33;28.53;;;14.23;;
6135;SDS011;24008;42.664;23.372;2022-12-18T12:10:12;25.90;;;15.43;;
6135;SDS011;24008;42.664;23.372;2022-12-18T12:12:51;24.37;;;14.60;;
6135;SDS011;24008;42.664;23.372;2022-12-18T12:15:28;29.03;;;15.93;;
6135;SDS011;24008;42.664;23.372;2022-12-18T12:18:09;28.50;;;15.83;;
6135;SDS011;24008;42.664;23.372;2022-12-18T12:20:49;26.60;;;15.60;;
6135;SDS011;24008;42.664;23.372;2022-12-18T12:23:23;28.87;;;16.10;;
6135;SDS011;24008;42.664;23.372;2022-12-18T12:25:59;30.23;;;16.27;;
6135;SDS011;24008;42.664;23.372;2022-12-18T12:28:37;30.77;;;16.53;;
6135;SDS011;24008;42.664;23.372;2022-12-18T12:31:41;27.53;;;15.73;;
6135;SDS011;24008;42.664;23.372;2022-12-18T12:34:21;28.53;;;15.73;;
6135;SDS011;24008;42.664;23.372;2022-12-18T12:37:05;29.03;;;15.97;;
6135;SDS011;24008;42.664;23.372;2022-12-18T12:39:42;25.63;;;15.37;;
6135;SDS011;24008;42.664;23.372;2022-12-18T12:42:12;26.40;;;15.30;;
6135;SDS011;24008;42.664;23.372;2022-12-18T12:45:01;27.67;;;14.73;;
6135;SDS011;24008;42.664;23.372;2022-12-18T12:47:35;27.13;;;14.30;;
6135;SDS011;24008;42.664;23.372;2022-12-18T12:50:12;27.67;;;15.80;;
6135;SDS011;24008;42.664;23.372;2022-12-18T12:52:43;27.77;;;16.50;;
6135;SDS011;24008;42.664;23.372;2022-12-18T12:55:14;28.20;;;15.37;;
6135;SDS011;24008;42.664;23.372;2022-12-18T12:57:45;25.73;;;14.53;;
6135;SDS011;24008;42.664;23.372;2022-12-18T13:00:15;24.73;;;14.63;;
6135;SDS011;24008;42.664;23.372;2022-12-18T13:02:46;28.33;;;15.20;;
6135;SDS011;24008;42.664;23.372;2022-12-18T13:05:21;27.90;;;16.13;;
6135;SDS011;24008;42.664;23.372;2022-12-18T13:07:56;32.10;;;15.70;;
6135;SDS011;24008;42.664;23.372;2022-12-18T13:10:32;27.90;;;16.27;;
6135;SDS011;24008;42.664;23.372;2022-12-18T13:13:01;29.03;;;16.17;;
6135;SDS011;24008;42.664;23.372;2022-12-18T13:18:15;31.03;;;16.87;;
6135;SDS011;24008;42.664;23.372;2022-12-18T13:20:46;29.07;;;16.77;;
6135;SDS011;24008;42.664;23.372;2022-12-18T13:23:19;31.00;;;17.70;;
6135;SDS011;24008;42.664;23.372;2022-12-18T13:25:52;30.00;;;16.60;;
6135;SDS011;24008;42.664;23.372;2022-12-18T13:28:20;27.40;;;15.87;;
6135;SDS011;24008;42.664;23.372;2022-12-18T13:30:50;30.73;;;16.30;;
6135;SDS011;24008;42.664;23.372;2022-12-18T13:36:31;29.00;;;16.43;;
6135;SDS011;24008;42.664;23.372;2022-12-18T13:39:09;29.43;;;16.73;;
6135;SDS011;24008;42.664;23.372;2022-12-18T13:41:48;29.63;;;16.87;;
6135;SDS011;24008;42.664;23.372;2022-12-18T13:44:22;30.37;;;16.90;;
6135;SDS011;24008;42.664;23.372;2022-12-18T13:46:52;30.13;;;17.43;;
6135;SDS011;24008;42.664;23.372;2022-12-18T13:49:21;28.73;;;16.93;;
6135;SDS011;24008;42.664;23.372;2022-12-18T13:51:53;27.63;;;16.80;;
6135;SDS011;24008;42.664;23.372;2022-12-18T13:54:23;28.90;;;16.67;;
6135;SDS011;24008;42.664;23.372;2022-12-18T13:56:55;31.87;;;18.07;;
6135;SDS011;24008;42.664;23.372;2022-12-18T13:59:22;31.80;;;17.40;;
6135;SDS011;24008;42.664;23.372;2022-12-18T14:01:52;31.00;;;17.80;;
6135;SDS011;24008;42.664;23.372;2022-12-18T14:04:24;29.47;;;16.73;;
6135;SDS011;24008;42.664;23.372;2022-12-18T14:06:54;31.63;;;18.50;;
6135;SDS011;24008;42.664;23.372;2022-12-18T14:09:25;32.13;;;17.47;;
6135;SDS011;24008;42.664;23.372;2022-12-18T14:11:53;29.97;;;17.53;;
6135;SDS011;24008;42.664;23.372;2022-12-18T14:14:43;30.90;;;17.43;;
6135;SDS011;24008;42.664;23.372;2022-12-18T14:17:12;29.67;;;17.90;;
6135;SDS011;24008;42.664;23.372;2022-12-18T14:19:43;27.57;;;16.30;;
6135;SDS011;24008;42.664;23.372;2022-12-18T14:22:15;33.10;;;17.97;;
6135;SDS011;24008;42.664;23.372;2022-12-18T14:24:44;29.73;;;16.40;;
6135;SDS011;24008;42.664;23.372;2022-12-18T14:27:12;30.17;;;16.20;;
6135;SDS011;24008;42.664;23.372;2022-12-18T14:29:46;29.30;;;15.83;;
6135;SDS011;24008;42.664;23.372;2022-12-18T14:32:13;27.83;;;16.37;;
6135;SDS011;24008;42.664;23.372;2022-12-18T14:34:42;29.07;;;17.03;;
6135;SDS011;24008;42.664;23.372;2022-12-18T14:37:10;27.87;;;16.70;;
6135;SDS011;24008;42.664;23.372;2022-12-18T14:39:58;29.20;;;16.17;;
6135;SDS011;24008;42.664;23.372;2022-12-18T14:42:26;27.43;;;15.40;;
6135;SDS011;24008;42.664;23.372;2022-12-18T14:47:59;27.73;;;15.27;;
6135;SDS011;24008;42.664;23.372;2022-12-18T14:50:26;26.07;;;15.17;;
6135;SDS011;24008;42.664;23.372;2022-12-18T14:52:53;30.63;;;16.43;;
6135;SDS011;24008;42.664;23.372;2022-12-18T14:55:21;28.33;;;16.20;;
6135;SDS011;24008;42.664;23.372;2022-12-18T14:57:49;26.43;;;15.87;;
6135;SDS011;24008;42.664;23.372;2022-12-18T15:00:19;27.17;;;15.13;;